Princeton Airport
CYDC : now visible

Airfield :











YOU CAN JOIN US ON...

 
LOGIN :

Register | Disclaimer

   EN    FR    IT 

 









Legend :    VFR   Marginal VFR   IFR   Intensive IFR   Very Intensive IFR
Visi :
Ceiling :
>= 8 km
>= 3000ft
5 to 8 km
1000 to 3000 ft
1500m to 5 km
500 to 1000 ft
800 to 1500m
200 to 500 ft
< 800m
< 200 ft
Symbols :   Thunderstorms  Fog  Heavy snow  Heavy precipitations  Wind > 20 kt






- Airport Elevation : 2298 ft


CYDC - Princeton

CURRENT METAR :
  • 272100Z VRB06KT 20SM FEW065 SCT079 BKN084 BKN090 17/04 A2969 RMK CU1AC2AC3AS1 SLP049 DENSITY ALT 3400FT

EXPIRED METARs :
  • 272000Z 24006KT 200V300 25SM FEW065 FEW083 BKN092 OVC140 17/03 A2969 RMK CU1AC4AC3AC1 CU TR SLP049 DENSITY ALT 3400FT
  • 271900Z 23008G15KT 25SM FEW060 SCT084 BKN091 BKN160 BKN190 17/03 A2971 RMK CU1AC2AC3AC1AC1 AC TR SLP056 DENSITY ALT 3300FT
  • 271838Z 21009KT 180V250 25SM FEW061 SCT100 BKN120 BKN150 BKN260 17/04 A2971 RMK CU1AC2AC2AC1CS2 WSHFT 1823 SLP058 DENSITY ALT 3300FT

TAF N/A
CZVR FIR / North America



MET'MAP, your aeronautical weather chart ! - Copyright ORBIFLY December 2007 - Disclaimer

ORBIFLY MET'MAP TEAM :

Programming & Development : Alexandra Zaïnal
Concept & original design : Baudouin d'Aumeries
Assistance for programming : Marc-Olivier Méhu
Technical & hardware support : Manuel Goepfert

Contact : metmap@orbifly.com




SOURCES & CREDITS :

   NOAA       Earth
Advisory